createdAt,value
2017-07-19T00:02:09.059Z,24.60
2017-07-19T00:04:37.337Z,24.50
2017-07-19T00:07:05.582Z,24.40
2017-07-19T00:09:33.928Z,24.40
2017-07-19T00:12:02.233Z,24.50
2017-07-19T00:14:30.584Z,24.70
2017-07-19T00:16:58.950Z,24.70
2017-07-19T00:19:27.459Z,24.60
2017-07-19T00:21:55.692Z,24.40
2017-07-19T00:24:23.939Z,24.40
2017-07-19T00:26:52.203Z,24.40
2017-07-19T00:29:20.489Z,24.50
2017-07-19T00:31:48.749Z,24.40
2017-07-19T00:34:17.032Z,24.30
2017-07-19T00:36:45.303Z,24.20
2017-07-19T00:39:14.352Z,24.20
2017-07-19T00:41:42.602Z,24.20
2017-07-19T00:44:10.880Z,24.20
2017-07-19T00:46:39.170Z,24.30
2017-07-19T00:49:07.416Z,24.40
2017-07-19T00:51:35.695Z,24.40
2017-07-19T00:54:03.963Z,24.40
2017-07-19T00:56:32.224Z,24.40
2017-07-19T00:59:00.492Z,24.40
2017-07-19T01:01:29.504Z,24.00
2017-07-19T01:03:57.792Z,24.00
2017-07-19T01:06:26.079Z,23.80
2017-07-19T01:08:54.315Z,23.70
2017-07-19T01:11:22.581Z,23.60
2017-07-19T01:13:50.849Z,23.60
2017-07-19T01:16:19.143Z,23.60
2017-07-19T01:18:47.402Z,23.50
2017-07-19T01:21:16.420Z,23.50
2017-07-19T01:23:44.708Z,23.50
2017-07-19T01:26:12.983Z,23.50
2017-07-19T01:28:41.260Z,23.60
2017-07-19T01:31:09.510Z,23.50
2017-07-19T01:33:37.768Z,23.40
2017-07-19T01:36:06.173Z,23.30
2017-07-19T01:38:34.411Z,23.20
2017-07-19T01:41:02.652Z,23.20
2017-07-19T01:43:30.992Z,23.10
2017-07-19T01:46:00.189Z,23.10
2017-07-19T01:48:28.467Z,23.10
2017-07-19T01:50:56.759Z,23.20
2017-07-19T01:53:25.031Z,23.20
2017-07-19T01:55:54.040Z,23.20
2017-07-19T01:58:22.362Z,23.20
2017-07-19T02:00:50.632Z,23.10
2017-07-19T02:03:19.679Z,23.10
2017-07-19T02:05:47.969Z,23.00
2017-07-19T02:08:16.226Z,23.00
2017-07-19T02:10:44.555Z,23.00
2017-07-19T02:13:12.839Z,23.10
2017-07-19T02:15:41.099Z,23.10
2017-07-19T02:18:09.531Z,23.10
2017-07-19T02:20:37.852Z,23.30
2017-07-19T02:23:06.094Z,23.30
2017-07-19T02:25:34.399Z,23.30
2017-07-19T02:28:02.704Z,23.40
2017-07-19T02:30:30.954Z,23.40
2017-07-19T02:33:00.070Z,23.30
2017-07-19T02:38:29.451Z,23.40
2017-07-19T02:40:57.763Z,23.40
2017-07-19T02:43:26.003Z,23.40
2017-07-19T02:45:54.256Z,23.50
2017-07-19T02:48:23.351Z,23.40
2017-07-19T02:50:51.668Z,23.40
2017-07-19T02:53:19.901Z,23.40
2017-07-19T02:55:48.132Z,23.40
2017-07-19T02:58:16.419Z,23.50
2017-07-19T03:00:44.702Z,23.50
2017-07-19T03:03:12.936Z,23.50
2017-07-19T03:05:41.248Z,23.50
2017-07-19T03:08:09.549Z,23.60
2017-07-19T03:10:37.844Z,23.60
2017-07-19T03:13:06.086Z,23.50
2017-07-19T03:15:34.394Z,23.60
2017-07-19T03:18:02.677Z,23.50
2017-07-19T03:20:30.932Z,23.50
2017-07-19T03:22:59.267Z,23.50
2017-07-19T03:25:27.577Z,23.60
2017-07-19T03:27:55.823Z,23.50
2017-07-19T03:30:24.887Z,23.50
2017-07-19T03:32:53.187Z,23.50
2017-07-19T03:35:21.396Z,23.50
2017-07-19T03:37:49.670Z,23.50
2017-07-19T03:40:17.899Z,23.50
2017-07-19T03:42:46.197Z,23.50
2017-07-19T03:45:14.450Z,23.50
2017-07-19T03:47:42.722Z,23.50
2017-07-19T03:50:11.126Z,23.50
2017-07-19T03:52:39.361Z,23.50
2017-07-19T03:55:07.628Z,23.50
2017-07-19T03:57:35.897Z,23.50
2017-07-19T04:00:04.142Z,23.50
2017-07-19T04:02:32.406Z,23.40
2017-07-19T04:05:00.711Z,23.50
2017-07-19T04:07:28.979Z,23.50
2017-07-19T04:09:57.410Z,23.50
2017-07-19T04:12:25.672Z,23.50
2017-07-19T04:14:53.932Z,23.50
2017-07-19T04:17:22.192Z,23.50
2017-07-19T04:19:50.463Z,23.50
2017-07-19T04:22:18.716Z,23.60
2017-07-19T04:24:46.959Z,23.60
2017-07-19T04:27:15.237Z,23.70
2017-07-19T04:29:43.492Z,23.70
2017-07-19T04:32:11.820Z,23.70
2017-07-19T04:34:40.051Z,23.80
2017-07-19T04:37:08.312Z,23.80
2017-07-19T04:39:36.587Z,23.80
2017-07-19T04:42:04.866Z,23.90
2017-07-19T04:44:33.140Z,23.90
2017-07-19T04:47:01.391Z,24.00
2017-07-19T04:49:30.431Z,24.10
2017-07-19T04:51:58.768Z,24.10
2017-07-19T04:54:27.768Z,24.10
2017-07-19T04:56:56.056Z,24.10
2017-07-19T04:59:24.325Z,24.10
2017-07-19T05:01:52.564Z,24.20
2017-07-19T05:04:20.795Z,24.30
2017-07-19T05:06:49.122Z,24.30
2017-07-19T05:09:17.370Z,24.30
2017-07-19T05:11:45.641Z,24.40
2017-07-19T05:14:13.950Z,24.40
2017-07-19T05:16:42.227Z,24.40
2017-07-19T05:19:33.639Z,24.40
2017-07-19T05:22:01.911Z,24.50
2017-07-19T05:24:30.174Z,24.50
2017-07-19T05:26:58.431Z,24.50
2017-07-19T05:29:26.696Z,24.60
2017-07-19T05:31:54.952Z,24.60
2017-07-19T05:34:23.218Z,24.70
2017-07-19T05:36:51.466Z,24.70
2017-07-19T05:39:20.522Z,24.70
2017-07-19T05:41:48.800Z,24.70
2017-07-19T05:44:17.076Z,24.80
2017-07-19T05:46:45.327Z,24.80
2017-07-19T05:49:13.592Z,24.70
2017-07-19T05:51:41.881Z,24.80
2017-07-19T05:54:10.883Z,24.90
2017-07-19T05:56:39.226Z,24.90
2017-07-19T05:59:07.471Z,25.00
2017-07-19T06:01:36.508Z,25.00
2017-07-19T06:04:04.782Z,25.00
2017-07-19T06:06:33.063Z,25.10
2017-07-19T06:09:02.075Z,25.20
2017-07-19T06:11:30.372Z,25.20
2017-07-19T06:13:58.698Z,25.20
2017-07-19T06:16:26.915Z,25.30
2017-07-19T06:18:55.240Z,25.30
2017-07-19T06:21:23.580Z,25.40
2017-07-19T06:23:51.929Z,25.40
2017-07-19T06:26:20.219Z,25.40
2017-07-19T06:28:50.588Z,25.50
2017-07-19T06:31:18.864Z,25.50
2017-07-19T06:33:47.112Z,25.50
2017-07-19T06:36:15.374Z,25.60
2017-07-19T06:38:43.635Z,25.70
2017-07-19T06:41:11.888Z,25.70
2017-07-19T06:43:40.161Z,25.80
2017-07-19T06:46:08.416Z,25.80
2017-07-19T06:48:36.698Z,25.80
2017-07-19T06:51:05.066Z,25.80
2017-07-19T06:53:33.319Z,25.90
2017-07-19T06:56:01.596Z,26.00
2017-07-19T06:58:30.184Z,26.10
2017-07-19T07:00:58.435Z,26.10
2017-07-19T07:03:26.725Z,26.20
2017-07-19T07:05:55.083Z,26.20
2017-07-19T07:08:23.328Z,26.30
2017-07-19T07:10:51.591Z,26.40
2017-07-19T07:13:19.991Z,26.40
2017-07-19T07:15:48.371Z,26.50
2017-07-19T07:21:16.964Z,26.60
2017-07-19T07:23:45.376Z,26.70
2017-07-19T07:26:14.402Z,26.80
2017-07-19T07:28:42.643Z,26.80
2017-07-19T07:31:11.697Z,26.90
2017-07-19T07:33:39.946Z,26.90
2017-07-19T07:36:08.271Z,27.00
2017-07-19T07:38:36.548Z,27.10
2017-07-19T07:41:04.848Z,27.20
2017-07-19T07:43:33.137Z,27.30
2017-07-19T07:46:01.393Z,27.30
2017-07-19T07:48:30.443Z,27.50
2017-07-19T07:50:58.704Z,27.50
2017-07-19T07:53:27.828Z,27.60
2017-07-19T07:55:56.903Z,27.70
2017-07-19T07:58:25.144Z,27.70
2017-07-19T08:00:54.479Z,27.80
2017-07-19T08:03:22.745Z,27.80
2017-07-19T08:05:51.012Z,27.80
2017-07-19T08:08:19.298Z,27.90
2017-07-19T08:10:47.551Z,28.00
2017-07-19T08:13:15.827Z,28.10
2017-07-19T08:15:44.238Z,28.20
2017-07-19T08:18:14.070Z,28.30
2017-07-19T08:20:43.719Z,28.50
2017-07-19T08:23:13.245Z,28.50
2017-07-19T08:25:42.878Z,28.60
2017-07-19T08:28:11.546Z,28.60
2017-07-19T08:30:39.875Z,28.60
2017-07-19T08:33:08.143Z,28.80
2017-07-19T08:35:37.169Z,28.90
2017-07-19T08:38:07.251Z,28.90
2017-07-19T08:40:36.255Z,29.10
2017-07-19T08:43:04.499Z,29.10
2017-07-19T08:45:32.876Z,29.20
2017-07-19T08:48:01.115Z,29.20
2017-07-19T08:50:30.170Z,29.40
2017-07-19T08:52:58.458Z,29.40
2017-07-19T08:55:26.707Z,29.50
2017-07-19T08:57:55.006Z,29.60
2017-07-19T09:00:23.291Z,29.60
2017-07-19T09:02:51.627Z,29.70
2017-07-19T09:05:19.877Z,29.80
2017-07-19T09:07:48.204Z,29.90
2017-07-19T09:10:16.530Z,29.90
2017-07-19T09:12:44.786Z,30.00
2017-07-19T09:15:13.039Z,30.00
2017-07-19T09:17:42.068Z,30.20
2017-07-19T09:20:10.372Z,30.20
2017-07-19T09:22:38.660Z,30.30
2017-07-19T09:25:06.967Z,30.30
2017-07-19T09:27:35.249Z,30.40
2017-07-19T09:30:03.618Z,30.40
2017-07-19T09:32:31.968Z,30.50
2017-07-19T09:35:00.233Z,30.60
2017-07-19T09:37:41.907Z,30.70
2017-07-19T09:40:10.206Z,30.70
2017-07-19T09:42:38.567Z,30.70
2017-07-19T09:45:06.802Z,30.80
2017-07-19T09:47:37.037Z,30.80
2017-07-19T09:50:05.330Z,30.90
2017-07-19T09:52:33.590Z,30.90
2017-07-19T09:55:01.862Z,31.00
2017-07-19T09:57:30.501Z,31.10
2017-07-19T09:59:58.759Z,31.10
2017-07-19T10:02:27.637Z,31.20
2017-07-19T10:05:00.587Z,31.30
2017-07-19T10:07:30.092Z,31.30
2017-07-19T10:09:59.110Z,31.30
2017-07-19T10:12:30.210Z,31.30
2017-07-19T10:15:02.193Z,31.40
2017-07-19T10:17:30.557Z,31.40
2017-07-19T10:19:59.575Z,31.60
2017-07-19T10:22:28.472Z,31.60
2017-07-19T10:24:56.760Z,31.70
2017-07-19T10:27:25.074Z,31.70
2017-07-19T10:29:53.343Z,31.70
2017-07-19T10:32:21.601Z,31.80
2017-07-19T10:34:49.884Z,31.80
2017-07-19T10:37:18.252Z,31.70
2017-07-19T10:39:46.496Z,31.70
2017-07-19T10:42:14.766Z,31.90
2017-07-19T10:44:43.115Z,31.90
2017-07-19T10:47:12.330Z,32.00
2017-07-19T10:49:40.565Z,32.00
2017-07-19T10:52:08.842Z,32.10
2017-07-19T10:54:37.247Z,32.10
2017-07-19T10:57:05.462Z,32.20
2017-07-19T10:59:33.795Z,32.20
2017-07-19T11:02:02.037Z,32.20
2017-07-19T11:04:30.306Z,32.30
2017-07-19T11:07:00.126Z,32.30
2017-07-19T11:09:28.379Z,32.30
2017-07-19T11:11:56.627Z,32.30
2017-07-19T11:14:25.097Z,32.40
2017-07-19T11:16:53.348Z,32.40
2017-07-19T11:19:22.399Z,32.40
2017-07-19T11:21:50.709Z,32.40
2017-07-19T11:24:19.837Z,32.50
2017-07-19T11:26:48.080Z,32.40
2017-07-19T11:29:16.402Z,32.50
2017-07-19T11:31:45.445Z,32.50
2017-07-19T11:34:13.692Z,32.50
2017-07-19T11:36:42.072Z,32.60
2017-07-19T11:39:11.142Z,32.70
2017-07-19T11:41:39.379Z,32.60
2017-07-19T11:44:08.631Z,32.70
2017-07-19T11:46:37.687Z,32.70
2017-07-19T11:49:05.986Z,32.70
2017-07-19T11:51:35.202Z,32.80
2017-07-19T11:54:03.568Z,32.80
2017-07-19T11:56:32.661Z,32.90
2017-07-19T11:59:00.987Z,32.90
2017-07-19T12:01:29.247Z,33.00
2017-07-19T12:03:57.534Z,33.00
2017-07-19T12:06:25.828Z,33.00
2017-07-19T12:08:54.172Z,33.10
2017-07-19T12:11:22.721Z,33.00
2017-07-19T12:13:50.966Z,33.10
2017-07-19T12:16:19.208Z,33.10
2017-07-19T12:18:47.448Z,33.10
2017-07-19T12:21:16.512Z,33.10
2017-07-19T12:23:44.854Z,33.10
2017-07-19T12:26:13.126Z,33.10
2017-07-19T12:28:42.426Z,33.00
2017-07-19T12:31:10.783Z,33.00
2017-07-19T12:33:39.044Z,33.00
2017-07-19T12:36:07.349Z,33.00
2017-07-19T12:38:35.829Z,33.10
2017-07-19T12:41:04.205Z,33.10
2017-07-19T12:43:32.991Z,33.20
2017-07-19T12:46:02.143Z,33.40
2017-07-19T12:48:30.514Z,33.30
2017-07-19T12:50:58.840Z,33.40
2017-07-19T12:53:28.120Z,33.40
2017-07-19T12:55:56.487Z,33.40
2017-07-19T12:58:24.982Z,33.40
2017-07-19T13:03:53.839Z,33.40
2017-07-19T13:06:22.178Z,33.40
2017-07-19T13:08:50.631Z,33.40
2017-07-19T13:11:20.035Z,33.50
2017-07-19T13:13:48.303Z,33.50
2017-07-19T13:16:17.538Z,33.60
2017-07-19T13:18:47.655Z,33.70
2017-07-19T13:21:16.056Z,33.70
2017-07-19T13:23:44.325Z,33.70
2017-07-19T13:26:12.660Z,33.70
2017-07-19T13:28:40.965Z,33.70
2017-07-19T13:31:09.325Z,33.70
2017-07-19T13:33:37.624Z,33.70
2017-07-19T13:36:06.654Z,33.70
2017-07-19T13:38:34.913Z,33.70
2017-07-19T13:41:03.241Z,33.70
2017-07-19T13:43:31.535Z,33.70
2017-07-19T13:45:59.804Z,33.70
2017-07-19T13:48:28.127Z,33.70
2017-07-19T13:50:56.400Z,33.70
2017-07-19T13:53:25.477Z,33.70
2017-07-19T13:55:53.736Z,33.70
2017-07-19T13:58:22.035Z,33.70
2017-07-19T14:00:51.253Z,33.60
2017-07-19T14:03:19.539Z,33.60
2017-07-19T14:05:47.792Z,33.60
2017-07-19T14:08:16.819Z,33.40
2017-07-19T14:10:45.124Z,33.40
2017-07-19T14:13:13.432Z,33.30
2017-07-19T14:15:42.484Z,33.20
2017-07-19T14:18:10.725Z,33.20
2017-07-19T14:20:39.050Z,33.20
2017-07-19T14:23:07.351Z,33.20
2017-07-19T14:25:35.672Z,33.00
2017-07-19T14:28:03.972Z,32.90
2017-07-19T14:30:32.389Z,33.00
2017-07-19T14:33:00.896Z,32.70
2017-07-19T14:35:29.398Z,32.40
2017-07-19T14:37:58.786Z,31.40
2017-07-19T14:40:27.465Z,31.40
2017-07-19T14:42:55.759Z,31.10
2017-07-19T14:45:24.090Z,30.80
2017-07-19T14:47:53.456Z,30.20
2017-07-19T14:50:21.701Z,30.10
2017-07-19T14:52:49.976Z,29.70
2017-07-19T14:55:18.272Z,29.20
2017-07-19T14:57:47.312Z,28.50
2017-07-19T15:00:15.621Z,28.50
2017-07-19T15:02:43.901Z,28.20
2017-07-19T15:05:12.191Z,28.00
2017-07-19T15:07:40.487Z,27.60
2017-07-19T15:10:09.549Z,27.20
2017-07-19T15:12:37.879Z,27.10
2017-07-19T15:15:06.892Z,27.10
2017-07-19T15:17:35.170Z,27.10
2017-07-19T15:20:05.070Z,27.20
2017-07-19T15:22:33.396Z,27.20
2017-07-19T15:25:01.663Z,27.20
2017-07-19T15:27:29.922Z,27.30
2017-07-19T15:29:58.220Z,27.20
2017-07-19T15:32:26.547Z,27.30
2017-07-19T15:34:56.715Z,27.20
2017-07-19T15:37:25.025Z,27.20
2017-07-19T15:39:53.389Z,27.20
2017-07-19T15:42:21.652Z,27.10
2017-07-19T15:44:49.931Z,27.00
2017-07-19T15:47:18.249Z,26.90
2017-07-19T15:49:47.287Z,26.90
2017-07-19T15:52:15.637Z,26.90
2017-07-19T15:54:44.833Z,26.60
2017-07-19T15:57:13.839Z,26.50
2017-07-19T15:59:42.150Z,26.50
2017-07-19T16:02:10.477Z,26.40
2017-07-19T16:04:39.572Z,26.50
2017-07-19T16:07:07.845Z,26.50
2017-07-19T16:09:36.168Z,26.50
2017-07-19T16:12:04.491Z,26.60
2017-07-19T16:14:33.601Z,26.40
2017-07-19T16:17:01.903Z,26.40
2017-07-19T16:19:30.166Z,26.50
2017-07-19T16:21:58.528Z,26.60
2017-07-19T16:24:26.825Z,26.60
2017-07-19T16:26:55.103Z,26.50
2017-07-19T16:29:23.389Z,26.60
2017-07-19T16:31:51.720Z,26.60
2017-07-19T16:34:20.765Z,26.30
2017-07-19T16:36:49.034Z,26.30
2017-07-19T16:39:17.344Z,26.10
2017-07-19T16:41:45.630Z,26.10
2017-07-19T16:44:17.201Z,26.00
2017-07-19T16:46:45.474Z,25.90
2017-07-19T16:49:30.209Z,25.80
2017-07-19T16:51:58.543Z,25.90
2017-07-19T16:54:26.851Z,25.80
2017-07-19T16:56:55.166Z,25.70
2017-07-19T16:59:23.443Z,25.70
2017-07-19T17:01:51.731Z,25.80
2017-07-19T17:04:20.048Z,26.00
2017-07-19T17:06:48.476Z,26.00
2017-07-19T17:09:17.626Z,26.10
2017-07-19T17:11:45.934Z,26.10
2017-07-19T17:14:14.240Z,26.10
2017-07-19T17:16:42.604Z,26.10
2017-07-19T17:19:11.011Z,26.10
2017-07-19T17:21:39.322Z,26.10
2017-07-19T17:24:07.597Z,26.20
2017-07-19T17:26:35.927Z,26.20
2017-07-19T17:29:04.243Z,26.20
2017-07-19T17:31:32.594Z,26.30
2017-07-19T17:34:01.843Z,26.30
2017-07-19T17:36:30.224Z,26.30
2017-07-19T17:38:58.885Z,26.30
2017-07-19T17:41:27.314Z,26.20
2017-07-19T17:43:55.610Z,26.30
2017-07-19T17:46:25.044Z,26.30
2017-07-19T17:48:53.398Z,26.30
2017-07-19T17:51:21.958Z,26.20
2017-07-19T17:53:51.942Z,26.20
2017-07-19T17:56:21.075Z,26.20
2017-07-19T17:58:50.148Z,26.10
2017-07-19T18:01:18.460Z,26.10
2017-07-19T18:03:46.831Z,26.10
2017-07-19T18:06:17.691Z,26.00
2017-07-19T18:08:47.507Z,26.10
2017-07-19T18:11:16.710Z,25.90
2017-07-19T18:13:45.020Z,25.90
2017-07-19T18:16:13.360Z,25.90
2017-07-19T18:18:41.692Z,26.00
2017-07-19T18:21:10.101Z,26.00
2017-07-19T18:23:38.493Z,26.00
2017-07-19T18:26:06.856Z,26.10
2017-07-19T18:28:35.938Z,26.10
2017-07-19T18:31:04.273Z,26.10
2017-07-19T18:33:32.568Z,26.10
2017-07-19T18:36:00.911Z,26.10
2017-07-19T18:38:29.266Z,26.10
2017-07-19T18:40:57.766Z,26.10
2017-07-19T18:43:26.144Z,26.10
2017-07-19T18:45:54.599Z,26.10
2017-07-19T18:48:22.934Z,26.10
2017-07-19T18:50:51.300Z,26.00
2017-07-19T18:53:19.690Z,26.00
2017-07-19T18:55:55.992Z,26.00
2017-07-19T18:58:24.278Z,26.00
2017-07-19T19:00:52.558Z,25.80
2017-07-19T19:03:20.874Z,25.70
2017-07-19T19:05:49.221Z,25.70
2017-07-19T19:08:18.298Z,25.80
2017-07-19T19:10:46.615Z,25.80
2017-07-19T19:13:14.894Z,25.90
2017-07-19T19:15:43.221Z,25.90
2017-07-19T19:18:11.496Z,25.80
2017-07-19T19:20:39.790Z,25.70
2017-07-19T19:23:08.118Z,25.70
2017-07-19T19:25:36.380Z,25.70
2017-07-19T19:28:04.654Z,25.80
2017-07-19T19:30:50.810Z,25.80
2017-07-19T19:33:19.080Z,25.70
2017-07-19T19:35:47.361Z,25.60
2017-07-19T19:38:15.750Z,25.60
2017-07-19T19:40:44.810Z,25.60
2017-07-19T19:43:13.116Z,25.60
2017-07-19T19:45:42.308Z,25.50
2017-07-19T19:48:11.507Z,25.40
2017-07-19T19:50:39.866Z,25.40
2017-07-19T19:53:08.269Z,25.50
2017-07-19T19:55:36.654Z,25.40
2017-07-19T19:58:05.691Z,25.40
2017-07-19T20:00:34.048Z,25.40
2017-07-19T20:03:02.421Z,25.30
2017-07-19T20:05:30.790Z,25.30
2017-07-19T20:07:59.153Z,25.20
2017-07-19T20:10:27.575Z,25.20
2017-07-19T20:12:56.856Z,25.30
2017-07-19T20:15:25.171Z,25.20
2017-07-19T20:17:53.506Z,25.20
2017-07-19T20:20:22.673Z,25.10
2017-07-19T20:22:51.871Z,25.00
2017-07-19T20:25:21.174Z,25.10
2017-07-19T20:27:49.651Z,25.00
2017-07-19T20:30:17.917Z,25.10
2017-07-19T20:32:46.254Z,25.10
2017-07-19T20:35:14.525Z,25.10
2017-07-19T20:37:42.939Z,25.00
2017-07-19T20:40:12.256Z,25.00
2017-07-19T20:42:41.510Z,24.90
2017-07-19T20:45:10.105Z,24.90
2017-07-19T20:47:38.494Z,24.90
2017-07-19T20:50:06.843Z,24.90
2017-07-19T20:52:35.886Z,24.90
2017-07-19T20:55:04.249Z,24.90
2017-07-19T20:57:32.620Z,24.90
2017-07-19T21:03:01.804Z,24.90
2017-07-19T21:05:30.058Z,24.90
2017-07-19T21:07:58.404Z,24.90
2017-07-19T21:10:26.707Z,24.90
2017-07-19T21:12:55.065Z,24.90
2017-07-19T21:15:23.441Z,24.90
2017-07-19T21:17:51.725Z,24.90
2017-07-19T21:23:20.502Z,24.80
2017-07-19T21:25:48.822Z,24.70
2017-07-19T21:28:17.123Z,24.70
2017-07-19T21:30:46.214Z,24.50
2017-07-19T21:33:16.572Z,24.50
2017-07-19T21:35:44.801Z,24.50
2017-07-19T21:38:13.858Z,24.50
2017-07-19T21:40:43.084Z,24.50
2017-07-19T21:43:11.575Z,24.60
2017-07-19T21:45:39.836Z,24.70
2017-07-19T21:48:08.120Z,24.70
2017-07-19T21:50:36.526Z,24.70
2017-07-19T21:53:04.974Z,24.70
2017-07-19T21:55:33.248Z,24.60
2017-07-19T21:58:01.533Z,24.70
2017-07-19T22:00:29.808Z,24.70
2017-07-19T22:02:58.456Z,24.60
2017-07-19T22:05:26.836Z,24.60
2017-07-19T22:07:55.897Z,24.50
2017-07-19T22:10:24.143Z,24.50
2017-07-19T22:12:52.477Z,24.50
2017-07-19T22:15:20.759Z,24.50
2017-07-19T22:17:49.054Z,24.50
2017-07-19T22:20:17.336Z,24.40
2017-07-19T22:22:45.785Z,24.30
2017-07-19T22:25:14.021Z,24.30
2017-07-19T22:27:42.284Z,24.20
2017-07-19T22:30:11.512Z,24.20
2017-07-19T22:32:39.828Z,24.20
2017-07-19T22:35:08.215Z,24.20
2017-07-19T22:37:36.528Z,24.20
2017-07-19T22:40:04.918Z,24.30
2017-07-19T22:42:33.165Z,24.30
2017-07-19T22:45:01.445Z,24.30
2017-07-19T22:47:30.577Z,24.40
2017-07-19T22:49:58.862Z,24.40
2017-07-19T22:52:27.191Z,24.40
2017-07-19T22:54:56.325Z,24.40
2017-07-19T22:57:24.595Z,24.30
2017-07-19T22:59:53.644Z,24.20
2017-07-19T23:02:22.858Z,24.20
2017-07-19T23:04:51.159Z,24.20
2017-07-19T23:07:20.212Z,24.20
2017-07-19T23:09:48.530Z,24.20
2017-07-19T23:12:16.765Z,24.20
2017-07-19T23:14:45.035Z,24.20
2017-07-19T23:17:14.154Z,24.20
2017-07-19T23:19:42.429Z,24.10
2017-07-19T23:22:10.681Z,24.10
2017-07-19T23:24:39.112Z,24.00
2017-07-19T23:27:08.205Z,24.00
2017-07-19T23:29:36.586Z,24.00
2017-07-19T23:32:04.875Z,24.00
2017-07-19T23:34:33.190Z,24.00
2017-07-19T23:37:01.492Z,24.00
2017-07-19T23:39:29.780Z,24.00
2017-07-19T23:41:58.708Z,23.90
2017-07-19T23:44:27.007Z,23.90
2017-07-19T23:46:55.264Z,23.90
2017-07-19T23:49:23.516Z,23.90
2017-07-19T23:51:51.838Z,24.00
2017-07-19T23:54:20.091Z,24.00
2017-07-19T23:56:48.380Z,24.00
2017-07-19T23:59:16.658Z,24.00
